Time;durP1;ratioP1;P1;durP2;ratioP2;P2;SDS_P1;SDS_P2;PMS_P1;PMS_P2;Temp;Humidity;BMP_temperature;BMP_pressure;BME280_temperature;BME280_humidity;BME280_pressure;Samples;Min_cycle;Max_cycle;Signal;HPM_P1;HPM_P2
2022/11/01 00:01:50;;;;;;;0.20;0.20;;;20.60;71.60;;;;;;5012057;28;20134;-22
2022/11/01 00:04:16;;;;;;;0.22;0.10;;;20.60;71.60;;;;;;5015179;28;20041;-23
2022/11/01 00:06:41;;;;;;;0.30;0.28;;;20.50;71.70;;;;;;5014631;28;20058;-22
2022/11/01 00:09:07;;;;;;;0.85;0.40;;;20.50;71.80;;;;;;5011659;28;20068;-21
2022/11/01 00:11:33;;;;;;;0.22;0.22;;;20.50;71.80;;;;;;5009014;28;20123;-21
2022/11/01 00:13:58;;;;;;;0.25;0.20;;;20.50;71.70;;;;;;5008030;28;20056;-21
2022/11/01 00:16:24;;;;;;;0.80;0.30;;;20.60;71.60;;;;;;5006489;28;20046;-22
2022/11/01 00:18:49;;;;;;;0.30;0.30;;;20.50;71.60;;;;;;5010187;28;20068;-22
2022/11/01 00:21:15;;;;;;;0.30;0.30;;;20.50;71.60;;;;;;5006247;28;20037;-22
2022/11/01 00:23:40;;;;;;;0.22;0.22;;;20.50;71.50;;;;;;5010100;28;20481;-22
2022/11/01 00:26:06;;;;;;;0.32;0.32;;;20.50;71.60;;;;;;5011287;28;20498;-23
2022/11/01 00:28:32;;;;;;;0.35;0.35;;;20.50;71.60;;;;;;5009429;28;20057;-22
2022/11/01 00:30:58;;;;;;;0.40;0.20;;;20.50;71.70;;;;;;5009040;28;20587;-29
2022/11/01 00:33:24;;;;;;;0.43;0.30;;;20.50;71.70;;;;;;5012036;28;20124;-21
2022/11/01 00:35:49;;;;;;;0.20;0.20;;;20.50;71.50;;;;;;5010689;28;20041;-22
2022/11/01 00:38:16;;;;;;;0.43;0.30;;;20.50;71.60;;;;;;5008081;28;20050;-12
2022/11/01 00:40:42;;;;;;;0.60;0.30;;;20.50;71.70;;;;;;5010771;28;20101;-13
2022/11/01 00:43:08;;;;;;;0.65;0.30;;;20.40;71.60;;;;;;5013266;28;20128;-17
2022/11/01 00:45:34;;;;;;;0.30;0.30;;;20.50;71.60;;;;;;5010454;28;20104;-12
2022/11/01 00:48:00;;;;;;;0.28;0.20;;;20.50;71.60;;;;;;5013098;28;20030;-13
2022/11/01 00:50:26;;;;;;;0.43;0.35;;;20.40;71.70;;;;;;5007409;28;20045;-13
2022/11/01 00:52:51;;;;;;;0.55;0.40;;;20.40;71.80;;;;;;5006083;28;20129;-13
2022/11/01 00:55:17;;;;;;;0.30;0.30;;;20.40;71.70;;;;;;5009596;28;20049;-13
2022/11/01 00:57:45;;;;;;;0.30;0.20;;;20.40;71.90;;;;;;5009594;28;20050;-12
2022/11/01 01:00:12;;;;;;;0.28;0.28;;;20.40;71.90;;;;;;5009292;28;20045;-12
2022/11/01 01:02:37;;;;;;;0.45;0.30;;;20.40;71.90;;;;;;5006994;28;20454;-12
2022/11/01 01:05:03;;;;;;;1.48;0.50;;;20.50;71.50;;;;;;5007383;28;20056;-13
2022/11/01 01:07:29;;;;;;;0.30;0.20;;;20.50;71.50;;;;;;5005822;28;20038;-13
2022/11/01 01:09:54;;;;;;;0.30;0.20;;;20.40;71.60;;;;;;5010406;28;20041;-13
2022/11/01 01:12:20;;;;;;;0.85;0.40;;;20.40;71.70;;;;;;5004378;28;20042;-12
2022/11/01 01:14:45;;;;;;;0.60;0.30;;;20.50;71.50;;;;;;5011855;28;20473;-13
2022/11/01 01:17:11;;;;;;;0.30;0.30;;;20.40;71.40;;;;;;5011383;28;20045;-13
2022/11/01 01:19:36;;;;;;;0.40;0.40;;;20.50;71.50;;;;;;5009278;28;20134;-12
2022/11/01 01:22:02;;;;;;;0.32;0.30;;;20.40;71.50;;;;;;5015054;28;20462;-12
2022/11/01 01:24:28;;;;;;;0.32;0.32;;;20.40;71.60;;;;;;5019795;28;20049;-12
2022/11/01 01:26:53;;;;;;;0.40;0.30;;;20.30;71.70;;;;;;5016186;28;20445;-12
2022/11/01 01:29:19;;;;;;;0.30;0.25;;;20.40;71.70;;;;;;5015053;28;20037;-14
2022/11/01 01:31:45;;;;;;;0.45;0.20;;;20.40;71.60;;;;;;5016893;28;20076;-12
2022/11/01 01:34:10;;;;;;;0.32;0.22;;;20.40;71.50;;;;;;5018540;28;20514;-13
2022/11/01 01:36:36;;;;;;;0.70;0.35;;;20.40;71.60;;;;;;5017171;28;20099;-13
2022/11/01 01:39:01;;;;;;;0.30;0.30;;;20.30;71.50;;;;;;5020265;28;20042;-13
2022/11/01 01:44:30;;;;;;;;;;;20.30;71.60;;;;;;5016998;28;20540;-12
2022/11/01 01:46:56;;;;;;;0.47;0.30;;;20.50;71.00;;;;;;5013020;28;20468;-12
2022/11/01 01:49:21;;;;;;;0.50;0.30;;;20.40;71.10;;;;;;5012870;28;20288;-12
2022/11/01 01:51:47;;;;;;;0.43;0.35;;;20.40;71.30;;;;;;5001361;28;20564;-12
2022/11/01 01:54:12;;;;;;;0.82;0.43;;;20.40;71.30;;;;;;5006626;28;20069;-23
2022/11/01 01:56:38;;;;;;;0.30;0.30;;;20.40;71.30;;;;;;4990909;28;20046;-13
2022/11/01 01:59:07;;;;;;;0.50;0.50;;;20.30;72.10;;;;;;4989332;28;20046;-12
2022/11/01 02:01:36;;;;;;;2.10;0.30;;;20.30;71.40;;;;;;4990307;28;20042;-13
2022/11/01 02:04:10;;;;;;;0.40;0.38;;;20.30;71.40;;;;;;4992537;28;20064;-12
2022/11/01 02:06:36;;;;;;;1.90;0.30;;;20.50;71.10;;;;;;5003395;28;20506;-13
2022/11/01 02:09:02;;;;;;;0.22;0.20;;;20.40;71.00;;;;;;4994207;28;20084;-13
2022/11/01 02:11:28;;;;;;;0.60;0.30;;;20.40;71.10;;;;;;4989125;28;20538;-17
2022/11/01 02:13:53;;;;;;;0.60;0.40;;;20.40;71.10;;;;;;4994006;28;20046;-12
2022/11/01 02:16:37;;;;;;;0.40;0.30;;;20.30;71.20;;;;;;4997172;28;20617;-12
2022/11/01 02:19:25;;;;;;;0.23;0.23;;;20.30;71.30;;;;;;4995916;28;20573;-13
2022/11/01 02:22:11;;;;;;;0.68;0.30;;;20.30;71.40;;;;;;4997881;28;20533;-15
2022/11/01 02:25:14;;;;;;;0.30;0.20;;;20.30;71.30;;;;;;4992032;28;20047;-13
2022/11/01 02:28:07;;;;;;;0.75;0.35;;;20.30;71.20;;;;;;4993375;28;20141;-13
2022/11/01 02:31:10;;;;;;;0.30;0.30;;;20.30;71.10;;;;;;5004775;28;20042;-13
2022/11/01 02:33:57;;;;;;;0.40;0.30;;;20.50;70.70;;;;;;4986873;28;20049;-12
2022/11/01 02:36:43;;;;;;;0.20;0.20;;;20.50;70.50;;;;;;4989550;28;20562;-13
2022/11/01 02:39:19;;;;;;;0.57;0.40;;;20.50;70.70;;;;;;4990407;28;20165;-13
2022/11/01 02:42:10;;;;;;;0.93;0.30;;;20.40;70.90;;;;;;4981708;28;20046;-13
2022/11/01 02:44:37;;;;;;;0.40;0.22;;;20.30;71.20;;;;;;4986311;28;20519;-13
2022/11/01 02:47:03;;;;;;;1.65;0.30;;;20.30;71.20;;;;;;4994773;28;20534;-13
2022/11/01 02:49:42;;;;;;;0.43;0.43;;;20.30;71.10;;;;;;4995696;28;20061;-13
2022/11/01 02:52:10;;;;;;;0.40;0.20;;;20.30;71.10;;;;;;4988396;28;20042;-12
2022/11/01 02:54:43;;;;;;;0.40;0.40;;;20.20;71.20;;;;;;4986445;28;20540;-12
2022/11/01 02:57:26;;;;;;;0.50;0.30;;;20.20;71.10;;;;;;5001190;28;20042;-12
2022/11/01 02:59:51;;;;;;;0.82;0.30;;;20.30;71.10;;;;;;4997941;28;20117;-13
2022/11/01 03:02:38;;;;;;;0.63;0.30;;;20.30;70.90;;;;;;5013986;28;20559;-13
2022/11/01 03:05:29;;;;;;;0.32;0.22;;;20.50;70.40;;;;;;5012170;28;20525;-12
2022/11/01 03:07:58;;;;;;;0.60;0.30;;;20.60;69.80;;;;;;4993627;28;20053;-21
2022/11/01 03:10:27;;;;;;;0.38;0.22;;;20.50;70.20;;;;;;5010533;28;20041;-13
2022/11/01 03:12:59;;;;;;;1.13;0.30;;;20.40;70.40;;;;;;5010642;28;20175;-13
2022/11/01 03:15:26;;;;;;;0.20;0.20;;;20.40;70.30;;;;;;5013252;28;20044;-13
2022/11/01 03:18:00;;;;;;;0.57;0.30;;;20.40;70.30;;;;;;5008934;28;20046;-14
2022/11/01 03:20:46;;;;;;;0.60;0.40;;;20.30;70.60;;;;;;5009238;28;20053;-13
2022/11/01 03:23:15;;;;;;;0.25;0.20;;;20.30;70.70;;;;;;5014817;28;20545;-16
2022/11/01 03:25:45;;;;;;;0.43;0.30;;;20.30;70.80;;;;;;5013351;28;20143;-21
2022/11/01 03:28:13;;;;;;;0.70;0.40;;;20.20;70.90;;;;;;5010198;28;20144;-13
2022/11/01 03:30:43;;;;;;;0.50;0.30;;;20.30;70.70;;;;;;5012585;28;20041;-12
2022/11/01 03:33:09;;;;;;;0.30;0.17;;;20.20;70.70;;;;;;5010290;28;20045;-13
2022/11/01 03:35:35;;;;;;;0.38;0.30;;;20.20;70.80;;;;;;5010749;28;20049;-13
2022/11/01 03:38:05;;;;;;;0.60;0.40;;;20.20;70.70;;;;;;5010976;28;20124;-12
2022/11/01 03:40:30;;;;;;;0.80;0.40;;;20.20;70.80;;;;;;5009804;28;20042;-12
2022/11/01 03:42:59;;;;;;;0.65;0.30;;;20.20;70.80;;;;;;5009994;28;20045;-12
2022/11/01 03:45:25;;;;;;;0.70;0.30;;;20.20;71.00;;;;;;5004979;28;20034;-13
2022/11/01 03:47:50;;;;;;;0.40;0.30;;;20.20;70.90;;;;;;4993918;28;21111;-13
2022/11/01 03:50:17;;;;;;;0.80;0.30;;;20.20;71.10;;;;;;4995042;28;20069;-12
2022/11/01 03:52:43;;;;;;;0.82;0.50;;;20.20;71.00;;;;;;4991181;28;20054;-13
2022/11/01 03:55:17;;;;;;;1.75;0.40;;;20.20;71.00;;;;;;4995838;28;20111;-12
2022/11/01 03:57:46;;;;;;;0.20;0.20;;;20.20;70.80;;;;;;4994604;28;20046;-13
2022/11/01 04:00:22;;;;;;;0.57;0.40;;;20.20;70.60;;;;;;4996020;28;20037;-12
2022/11/01 04:02:51;;;;;;;0.60;0.20;;;20.20;70.80;;;;;;5000940;28;20053;-13
2022/11/01 04:05:17;;;;;;;0.85;0.43;;;20.10;70.90;;;;;;4996033;28;20530;-12
2022/11/01 04:07:43;;;;;;;0.80;0.40;;;20.10;70.90;;;;;;4993601;28;20054;-12
2022/11/01 04:10:09;;;;;;;0.40;0.30;;;20.20;70.70;;;;;;5000597;28;20040;-12
2022/11/01 04:12:35;;;;;;;0.43;0.30;;;20.10;70.70;;;;;;4999548;28;20510;-13
2022/11/01 04:20:32;;;;;;;0.40;0.30;;;20.10;70.80;;;;;;5015869;28;20097;-13
2022/11/01 04:22:58;;;;;;;0.55;0.40;;;20.20;70.70;;;;;;5011427;28;20039;-12
2022/11/01 04:25:24;;;;;;;2.03;0.20;;;20.20;70.60;;;;;;5014266;28;20053;-13
2022/11/01 04:27:49;;;;;;;0.30;0.30;;;20.10;70.70;;;;;;5017315;28;20512;-12
2022/11/01 04:30:15;;;;;;;0.50;0.43;;;20.10;70.80;;;;;;5016305;28;20088;-16
2022/11/01 04:32:43;;;;;;;0.63;0.20;;;20.20;70.50;;;;;;5018799;28;20109;-12
2022/11/01 04:35:11;;;;;;;0.38;0.20;;;20.20;70.40;;;;;;5004302;28;20043;-13
2022/11/01 04:37:37;;;;;;;0.75;0.50;;;20.20;70.50;;;;;;5009555;28;20038;-13
2022/11/01 04:40:03;;;;;;;0.43;0.28;;;20.20;70.50;;;;;;5031419;28;20045;-14
2022/11/01 04:42:29;;;;;;;0.95;0.30;;;20.20;70.60;;;;;;5014307;28;20032;-13
2022/11/01 04:44:54;;;;;;;2.47;0.25;;;20.10;70.70;;;;;;4998339;28;20058;-13
2022/11/01 04:47:20;;;;;;;0.73;0.38;;;20.10;70.70;;;;;;4999464;28;20109;-15
2022/11/01 04:49:45;;;;;;;0.45;0.20;;;20.10;70.70;;;;;;4995368;28;20038;-13
2022/11/01 04:52:11;;;;;;;1.13;0.43;;;20.10;70.70;;;;;;5010854;28;20502;-13
2022/11/01 04:54:36;;;;;;;1.08;0.65;;;20.10;70.80;;;;;;5015875;28;20030;-12
2022/11/01 04:57:03;;;;;;;0.35;0.20;;;20.10;70.80;;;;;;5015471;28;20509;-13
2022/11/01 04:59:28;;;;;;;0.45;0.30;;;20.10;70.50;;;;;;5019539;28;20064;-12
2022/11/01 05:01:54;;;;;;;0.40;0.28;;;20.20;70.40;;;;;;5015770;28;20451;-12
2022/11/01 05:04:19;;;;;;;0.50;0.32;;;20.20;70.50;;;;;;5002468;28;20054;-13
2022/11/01 05:06:45;;;;;;;0.95;0.30;;;20.10;70.50;;;;;;5015785;28;20183;-19
2022/11/01 05:09:11;;;;;;;0.50;0.50;;;20.10;70.50;;;;;;5008868;28;20043;-19
2022/11/01 05:11:36;;;;;;;0.75;0.20;;;20.10;70.70;;;;;;5011642;28;20343;-12
2022/11/01 05:14:02;;;;;;;1.75;0.40;;;20.10;70.60;;;;;;5002141;28;20184;-13
2022/11/01 05:16:27;;;;;;;0.70;0.30;;;20.00;70.70;;;;;;5018413;28;20042;-15
2022/11/01 05:18:53;;;;;;;1.05;0.30;;;20.10;70.80;;;;;;5016716;28;20214;-21
2022/11/01 05:21:18;;;;;;;0.22;0.20;;;20.10;70.80;;;;;;5016019;28;20041;-12
2022/11/01 05:23:46;;;;;;;1.13;0.40;;;20.10;70.90;;;;;;5016585;28;20160;-12
2022/11/01 05:26:12;;;;;;;0.40;0.30;;;20.10;70.90;;;;;;5014626;28;20498;-12
2022/11/01 05:28:37;;;;;;;0.50;0.30;;;20.10;70.70;;;;;;5015147;28;20025;-14
2022/11/01 05:31:03;;;;;;;0.70;0.40;;;20.00;70.70;;;;;;5016792;28;20410;-13
2022/11/01 05:33:29;;;;;;;1.00;0.20;;;20.10;70.80;;;;;;5016262;28;20069;-12
2022/11/01 05:35:54;;;;;;;0.63;0.30;;;20.00;70.70;;;;;;5002242;28;20056;-12
2022/11/01 05:38:20;;;;;;;0.40;0.30;;;20.00;70.80;;;;;;5015568;28;20041;-13
2022/11/01 05:40:45;;;;;;;0.50;0.40;;;20.00;70.90;;;;;;5023138;28;20570;-18
2022/11/01 05:43:11;;;;;;;0.90;0.50;;;20.00;70.90;;;;;;5015510;28;20037;-12
2022/11/01 05:45:36;;;;;;;0.77;0.20;;;20.00;70.90;;;;;;5017456;28;20152;-14
2022/11/01 05:48:03;;;;;;;0.30;0.20;;;20.00;70.80;;;;;;5022262;28;20418;-13
2022/11/01 05:50:28;;;;;;;0.85;0.20;;;20.00;70.90;;;;;;5023722;28;20125;-12
2022/11/01 05:52:54;;;;;;;0.80;0.30;;;19.90;71.00;;;;;;5014242;28;20179;-12
2022/11/01 05:55:19;;;;;;;0.63;0.30;;;19.90;71.10;;;;;;5021014;28;20072;-12
2022/11/01 05:57:45;;;;;;;0.50;0.30;;;19.90;71.00;;;;;;5022318;28;20049;-13
2022/11/01 06:00:11;;;;;;;1.13;0.30;;;19.90;70.90;;;;;;5024763;28;20133;-12
2022/11/01 06:02:37;;;;;;;0.50;0.45;;;20.00;70.90;;;;;;5026378;28;20041;-12
2022/11/01 06:05:02;;;;;;;0.32;0.30;;;20.00;70.90;;;;;;5018854;28;20049;-13
2022/11/01 06:07:28;;;;;;;0.40;0.20;;;20.00;70.90;;;;;;5021475;28;20053;-13
2022/11/01 06:09:53;;;;;;;0.40;0.20;;;20.00;70.90;;;;;;5025656;28;20053;-12
2022/11/01 06:12:22;;;;;;;1.05;0.30;;;20.00;70.80;;;;;;5016232;28;20057;-14
2022/11/01 06:14:47;;;;;;;1.27;0.17;;;20.00;70.60;;;;;;5018112;28;20065;-12
2022/11/01 06:17:13;;;;;;;0.30;0.20;;;20.00;70.60;;;;;;5003964;28;20127;-12
2022/11/01 06:19:39;;;;;;;0.43;0.35;;;20.00;71.30;;;;;;5004757;28;20057;-13
2022/11/01 06:22:05;;;;;;;0.65;0.20;;;20.00;70.70;;;;;;5004633;28;20502;-13
2022/11/01 06:24:30;;;;;;;0.52;0.30;;;19.90;70.80;;;;;;4992786;28;20082;-12
2022/11/01 06:26:56;;;;;;;0.73;0.20;;;19.90;70.80;;;;;;4995467;28;20046;-19
2022/11/01 06:29:21;;;;;;;1.63;0.20;;;19.90;71.00;;;;;;4999871;28;20053;-12
2022/11/01 06:31:47;;;;;;;0.93;0.28;;;19.90;70.90;;;;;;4998634;28;20042;-12
2022/11/01 06:34:13;;;;;;;0.82;0.40;;;19.90;71.10;;;;;;4999148;28;20600;-12
2022/11/01 06:36:38;;;;;;;0.10;0.10;;;19.90;70.70;;;;;;4997325;28;20514;-12
2022/11/01 06:39:04;;;;;;;0.40;0.30;;;20.00;70.70;;;;;;5017265;28;20048;-13
2022/11/01 06:41:29;;;;;;;0.55;0.28;;;20.00;70.60;;;;;;5011330;28;20046;-12
2022/11/01 06:43:55;;;;;;;0.32;0.25;;;20.10;70.60;;;;;;5006543;28;20046;-12
2022/11/01 06:46:20;;;;;;;0.52;0.20;;;20.00;70.40;;;;;;4994453;28;20046;-12
2022/11/01 06:48:47;;;;;;;0.30;0.20;;;20.00;70.40;;;;;;4993299;28;20418;-12
2022/11/01 06:51:13;;;;;;;0.25;0.20;;;20.00;70.50;;;;;;4996575;28;20533;-13
2022/11/01 06:53:38;;;;;;;0.28;0.22;;;20.00;70.60;;;;;;4993437;28;20038;-13
2022/11/01 06:56:05;;;;;;;1.20;0.40;;;19.90;70.80;;;;;;4992274;28;20057;-12
2022/11/01 06:58:30;;;;;;;0.70;0.40;;;19.90;70.80;;;;;;4996012;28;20045;-12
2022/11/01 07:00:56;;;;;;;0.57;0.40;;;19.90;70.90;;;;;;4995085;28;20042;-12
2022/11/01 07:03:21;;;;;;;0.45;0.30;;;19.90;70.80;;;;;;5003311;28;20087;-12
2022/11/01 07:05:48;;;;;;;0.30;0.20;;;20.00;70.70;;;;;;5008803;28;20047;-13
2022/11/01 07:08:14;;;;;;;4.57;0.40;;;20.00;70.60;;;;;;5032933;28;20030;-13
2022/11/01 07:10:41;;;;;;;0.60;0.30;;;20.00;70.70;;;;;;5012414;28;20052;-12
2022/11/01 07:13:08;;;;;;;0.90;0.30;;;19.90;70.80;;;;;;5016974;28;20133;-13
2022/11/01 07:15:34;;;;;;;0.50;0.30;;;19.90;70.80;;;;;;5014299;28;20052;-12
2022/11/01 07:18:01;;;;;;;0.38;0.20;;;19.90;70.70;;;;;;5014882;28;20120;-12
2022/11/01 07:20:27;;;;;;;0.30;0.25;;;20.00;70.50;;;;;;5018555;28;20042;-12
2022/11/01 07:23:03;;;;;;;1.23;0.30;;;19.90;70.70;;;;;;5010256;28;20049;-13
2022/11/01 07:25:29;;;;;;;0.30;0.20;;;19.90;70.90;;;;;;5016074;28;20049;-13
2022/11/01 07:27:55;;;;;;;0.43;0.20;;;19.80;70.90;;;;;;5018461;28;20033;-12
2022/11/01 07:30:21;;;;;;;0.70;0.30;;;19.90;71.10;;;;;;5015558;28;20104;-12
2022/11/01 07:32:46;;;;;;;0.13;0.10;;;19.90;70.90;;;;;;5014116;28;20037;-12
2022/11/01 07:35:12;;;;;;;0.40;0.30;;;19.90;70.90;;;;;;4990689;28;20466;-12
2022/11/01 07:37:38;;;;;;;0.93;0.57;;;19.90;70.70;;;;;;4990567;28;20042;-14
2022/11/01 07:40:04;;;;;;;2.03;0.20;;;19.90;70.70;;;;;;4988127;28;20534;-12
2022/11/01 07:42:29;;;;;;;0.30;0.20;;;19.90;70.70;;;;;;4995361;28;20817;-12
2022/11/01 07:44:55;;;;;;;0.40;0.17;;;19.90;70.90;;;;;;4993688;28;20041;-12
2022/11/01 07:47:21;;;;;;;0.45;0.40;;;19.80;70.90;;;;;;4990797;28;20038;-12
2022/11/01 07:49:46;;;;;;;0.35;0.30;;;19.90;70.90;;;;;;4996962;28;20043;-12
2022/11/01 07:52:12;;;;;;;0.35;0.20;;;19.80;70.90;;;;;;4994318;28;20528;-13
2022/11/01 07:54:38;;;;;;;0.40;0.40;;;19.80;71.10;;;;;;4989381;28;20073;-15
2022/11/01 07:57:04;;;;;;;1.77;0.30;;;19.80;71.90;;;;;;4992885;28;20496;-12
2022/11/01 07:59:29;;;;;;;0.70;0.20;;;19.80;71.00;;;;;;4999992;28;20103;-12
2022/11/01 08:01:55;;;;;;;0.35;0.20;;;19.80;71.10;;;;;;4993242;28;20046;-12
2022/11/01 08:04:21;;;;;;;0.68;0.28;;;19.80;71.00;;;;;;4988935;28;20507;-12
2022/11/01 08:06:46;;;;;;;0.47;0.30;;;19.80;71.00;;;;;;4988839;28;20049;-12
2022/11/01 08:09:12;;;;;;;0.40;0.20;;;19.80;71.30;;;;;;4992899;28;20042;-12
2022/11/01 08:11:37;;;;;;;0.65;0.30;;;19.70;71.40;;;;;;4992621;28;20049;-12
2022/11/01 08:14:03;;;;;;;0.40;0.20;;;19.80;71.30;;;;;;4989797;28;20050;-13
2022/11/01 08:16:28;;;;;;;0.22;0.20;;;19.70;71.50;;;;;;4995230;28;20495;-13
2022/11/01 08:18:54;;;;;;;0.98;0.40;;;19.70;71.50;;;;;;4991632;28;20038;-12
2022/11/01 08:21:20;;;;;;;0.52;0.25;;;19.70;71.50;;;;;;5008588;28;20075;-13
2022/11/01 08:23:45;;;;;;;0.40;0.30;;;19.70;71.30;;;;;;5018530;28;20038;-13
2022/11/01 08:26:11;;;;;;;0.77;0.20;;;19.70;71.00;;;;;;5006863;28;20065;-12
2022/11/01 08:28:36;;;;;;;0.60;0.20;;;19.70;71.40;;;;;;5008475;28;20048;-12
2022/11/01 08:31:05;;;;;;;0.60;0.32;;;19.70;71.40;;;;;;5005164;28;20049;-12
2022/11/01 08:33:30;;;;;;;0.30;0.30;;;19.60;71.40;;;;;;5012384;28;20120;-12
2022/11/01 08:35:56;;;;;;;0.43;0.20;;;19.70;70.90;;;;;;5012063;28;20511;-13
2022/11/01 08:38:22;;;;;;;0.43;0.28;;;19.60;70.50;;;;;;5010114;28;20064;-12
2022/11/01 08:40:47;;;;;;;0.35;0.20;;;19.70;71.10;;;;;;5007017;28;20048;-12
2022/11/01 08:43:13;;;;;;;0.30;0.20;;;19.60;70.40;;;;;;5010057;28;20128;-12
2022/11/01 08:45:39;;;;;;;0.25;0.20;;;19.60;70.40;;;;;;5011496;28;20417;-13
2022/11/01 08:48:05;;;;;;;0.35;0.17;;;19.60;70.40;;;;;;5014038;28;20048;-13
2022/11/01 08:50:32;;;;;;;0.55;0.20;;;19.70;70.40;;;;;;5013632;28;20037;-13
2022/11/01 08:52:58;;;;;;;0.57;0.10;;;19.70;70.30;;;;;;5017266;28;20037;-13
2022/11/01 08:55:24;;;;;;;0.70;0.20;;;19.70;70.30;;;;;;5016140;28;20096;-12
2022/11/01 08:57:49;;;;;;;0.57;0.30;;;19.70;70.50;;;;;;5011815;28;20049;-12
2022/11/01 09:00:16;;;;;;;0.60;0.30;;;19.70;70.80;;;;;;5010557;28;20132;-12
2022/11/01 09:02:42;;;;;;;0.52;0.20;;;19.70;71.00;;;;;;5008568;28;20069;-13
2022/11/01 09:05:07;;;;;;;0.47;0.10;;;19.70;70.60;;;;;;4983904;28;20166;-16
2022/11/01 09:07:33;;;;;;;0.68;0.20;;;19.80;70.30;;;;;;4984148;28;20050;-13
2022/11/01 09:09:59;;;;;;;0.40;0.28;;;19.80;70.20;;;;;;4989603;28;20073;-12
2022/11/01 09:12:25;;;;;;;0.65;0.20;;;19.80;70.60;;;;;;4988854;28;20159;-13
2022/11/01 09:14:51;;;;;;;0.28;0.28;;;19.80;70.60;;;;;;4989853;28;20427;-12
2022/11/01 09:17:16;;;;;;;0.25;0.22;;;19.80;70.10;;;;;;4993903;28;20121;-12
2022/11/01 09:19:42;;;;;;;0.45;0.30;;;19.80;69.90;;;;;;5004102;28;20059;-12
2022/11/01 09:22:09;;;;;;;0.30;0.30;;;19.90;70.30;;;;;;5008261;28;20124;-12
2022/11/01 09:24:34;;;;;;;0.90;0.28;;;19.90;70.20;;;;;;5012360;28;20054;-12
2022/11/01 09:27:00;;;;;;;1.48;0.30;;;19.90;70.00;;;;;;5004514;28;20402;-14
2022/11/01 09:29:25;;;;;;;0.32;0.10;;;19.90;70.10;;;;;;5018072;28;20049;-12
2022/11/01 09:31:52;;;;;;;0.25;0.15;;;20.00;70.30;;;;;;5014282;28;20044;-12
2022/11/01 09:34:18;;;;;;;0.47;0.20;;;19.90;70.30;;;;;;5019732;28;20045;-13
2022/11/01 09:36:44;;;;;;;0.30;0.20;;;19.90;70.40;;;;;;5011601;28;20042;-12
2022/11/01 09:39:09;;;;;;;0.40;0.40;;;19.90;70.70;;;;;;4994049;28;20046;-23
2022/11/01 09:41:37;;;;;;;0.88;0.25;;;19.90;71.00;;;;;;4989248;28;20121;-13
2022/11/01 09:44:04;;;;;;;0.95;0.28;;;19.90;71.10;;;;;;4988086;28;20525;-13
2022/11/01 09:46:53;;;;;;;1.75;0.28;;;19.80;71.00;;;;;;5003377;28;20046;-12
2022/11/01 09:49:34;;;;;;;2.17;0.30;;;19.90;71.00;;;;;;5000416;28;20071;-12
2022/11/01 09:52:00;;;;;;;1.58;0.20;;;19.90;70.80;;;;;;4986057;28;20502;-12
2022/11/01 09:54:25;;;;;;;0.40;0.10;;;19.90;70.70;;;;;;4987095;28;20041;-13
2022/11/01 09:56:57;;;;;;;0.52;0.20;;;20.00;70.40;;;;;;4985878;28;20083;-12
2022/11/01 09:59:49;;;;;;;0.30;0.20;;;20.00;70.20;;;;;;4642076;28;10000230;-12
2022/11/01 10:02:47;;;;;;;0.22;0.20;;;20.00;70.10;;;;;;5011875;28;20429;-12
2022/11/01 10:05:19;;;;;;;0.52;0.30;;;20.10;70.30;;;;;;5020825;28;20124;-13
2022/11/01 10:07:56;;;;;;;0.88;0.30;;;20.00;70.40;;;;;;5000765;28;20043;-12
2022/11/01 10:10:33;;;;;;;1.20;0.30;;;20.10;70.30;;;;;;4994928;28;20046;-12
2022/11/01 10:13:06;;;;;;;0.25;0.20;;;20.00;70.40;;;;;;5012914;28;20041;-12
2022/11/01 10:15:38;;;;;;;0.20;0.13;;;20.00;70.30;;;;;;5008613;28;20043;-12
2022/11/01 10:18:50;;;;;;;0.50;0.20;;;20.00;70.10;;;;;;4991995;28;20049;-12
2022/11/01 10:21:16;;;;;;;0.77;0.40;;;20.00;70.40;;;;;;5002191;28;20693;-12
2022/11/01 10:23:44;;;;;;;0.30;0.20;;;20.10;70.40;;;;;;5005859;28;20526;-17
2022/11/01 10:26:13;;;;;;;0.40;0.20;;;20.20;70.00;;;;;;5025845;28;20097;-13
2022/11/01 10:28:45;;;;;;;0.40;0.30;;;20.20;70.10;;;;;;5006461;28;20341;-12
2022/11/01 10:31:14;;;;;;;1.13;0.30;;;20.20;70.00;;;;;;5008606;28;20671;-14
2022/11/01 10:34:18;;;;;;;1.92;0.20;;;20.20;70.30;;;;;;4999173;28;20042;-12
2022/11/01 10:36:45;;;;;;;0.63;0.20;;;20.20;70.40;;;;;;5010911;28;20141;-12
2022/11/01 10:39:23;;;;;;;0.70;0.40;;;20.10;70.40;;;;;;5011744;28;20421;-13
2022/11/01 10:41:52;;;;;;;0.73;0.40;;;20.20;70.40;;;;;;5003388;28;20108;-13
2022/11/01 10:44:26;;;;;;;0.50;0.35;;;20.20;70.20;;;;;;4996887;28;20164;-12
2022/11/01 10:46:51;;;;;;;0.40;0.30;;;20.30;70.20;;;;;;5007013;28;20061;-15
2022/11/01 10:49:28;;;;;;;0.93;0.20;;;20.50;69.70;;;;;;5010921;28;20156;-12
2022/11/01 10:51:57;;;;;;;0.30;0.30;;;20.50;69.60;;;;;;5010117;28;20621;-12
2022/11/01 10:54:26;;;;;;;4.15;0.52;;;20.60;69.90;;;;;;5006461;28;20050;-12
2022/11/01 10:56:52;;;;;;;1.17;0.30;;;20.50;70.30;;;;;;5011084;28;20126;-12
2022/11/01 10:59:28;;;;;;;0.52;0.38;;;20.60;69.60;;;;;;4998547;28;20042;-12
2022/11/01 11:01:55;;;;;;;0.80;0.28;;;20.70;69.70;;;;;;5012861;28;20045;-14
2022/11/01 11:04:22;;;;;;;0.82;0.28;;;20.80;69.20;;;;;;5011887;28;20053;-12
2022/11/01 11:06:48;;;;;;;0.32;0.20;;;20.80;68.90;;;;;;5005531;28;20076;-13
2022/11/01 11:09:20;;;;;;;0.50;0.20;;;20.80;68.70;;;;;;5009887;28;20057;-12
2022/11/01 11:11:46;;;;;;;1.75;0.40;;;20.80;68.80;;;;;;5005112;28;20521;-12
2022/11/01 11:14:12;;;;;;;0.40;0.30;;;20.90;68.40;;;;;;5019923;28;20046;-12
2022/11/01 11:16:56;;;;;;;1.52;0.40;;;20.80;68.80;;;;;;5014210;28;20041;-12
2022/11/01 11:19:33;;;;;;;1.45;0.30;;;21.00;68.60;;;;;;5010162;28;20469;-12
2022/11/01 11:21:58;;;;;;;0.35;0.30;;;20.90;68.40;;;;;;5012528;28;20053;-12
2022/11/01 11:24:44;;;;;;;1.02;0.43;;;20.90;68.50;;;;;;5020616;28;20042;-12
2022/11/01 11:27:25;;;;;;;3.20;0.50;;;20.90;68.20;;;;;;5006972;28;20707;-13
2022/11/01 11:29:59;;;;;;;0.93;0.40;;;20.80;67.90;;;;;;5007698;28;20029;-13
2022/11/01 11:32:26;;;;;;;4.20;0.60;;;20.70;68.00;;;;;;5014212;28;20058;-14
2022/11/01 11:34:57;;;;;;;0.80;0.60;;;20.90;67.60;;;;;;4993890;28;20425;-12
2022/11/01 11:37:23;;;;;;;2.55;0.70;;;20.60;68.70;;;;;;5008002;28;20069;-17
2022/11/01 11:40:11;;;;;;;1.35;0.50;;;20.70;68.80;;;;;;5005222;28;20073;-12
2022/11/01 11:42:37;;;;;;;1.27;0.65;;;20.80;68.70;;;;;;5000958;28;20511;-12
2022/11/01 11:45:14;;;;;;;2.17;0.73;;;20.70;69.20;;;;;;5005950;28;20061;-13
2022/11/01 11:47:40;;;;;;;1.77;0.88;;;20.60;69.90;;;;;;5008646;28;20041;-12
2022/11/01 11:50:22;;;;;;;1.50;0.70;;;20.50;70.30;;;;;;4639300;28;10000087;-13
2022/11/01 11:53:01;;;;;;;1.23;0.63;;;20.60;69.80;;;;;;4999853;28;20050;-13
2022/11/01 11:55:40;;;;;;;2.38;0.50;;;20.60;69.90;;;;;;5007951;28;20052;-12
2022/11/01 11:58:26;;;;;;;1.52;0.60;;;20.70;70.00;;;;;;5006108;28;20049;-12
2022/11/01 12:00:56;;;;;;;2.00;0.80;;;20.90;69.60;;;;;;5009671;28;20049;-13
2022/11/01 12:03:22;;;;;;;1.30;0.80;;;20.90;69.40;;;;;;4986024;28;20069;-13
2022/11/01 12:05:58;;;;;;;1.38;0.50;;;20.90;69.30;;;;;;5002998;28;20490;-12
2022/11/01 12:08:45;;;;;;;3.75;0.63;;;20.90;69.50;;;;;;5007119;28;20606;-13
2022/11/01 12:11:11;;;;;;;1.67;0.90;;;20.90;69.60;;;;;;5004800;28;20037;-13
2022/11/01 12:13:37;;;;;;;1.95;0.60;;;20.90;69.60;;;;;;5011917;28;20075;-13
2022/11/01 12:16:16;;;;;;;1.27;0.75;;;20.90;69.50;;;;;;5005530;28;20041;-13
2022/11/01 12:18:52;;;;;;;2.22;0.77;;;21.00;69.40;;;;;;5007799;28;20045;-12
2022/11/01 12:21:43;;;;;;;1.55;0.50;;;21.00;69.30;;;;;;4993293;28;20049;-14
2022/11/01 12:24:17;;;;;;;3.35;0.80;;;21.00;69.40;;;;;;4996410;28;20130;-12
2022/11/01 12:26:43;;;;;;;1.13;0.55;;;21.20;68.80;;;;;;5010409;28;20065;-12
2022/11/01 12:29:26;;;;;;;1.25;0.80;;;21.00;69.00;;;;;;4989303;28;20045;-13
2022/11/01 12:31:52;;;;;;;1.48;0.47;;;21.00;69.30;;;;;;5036932;28;20125;-12
2022/11/01 12:34:22;;;;;;;0.60;0.50;;;21.10;68.80;;;;;;5010382;28;20778;-10
2022/11/01 12:37:15;;;;;;;0.60;0.35;;;21.00;69.40;;;;;;5009658;28;20490;-12
2022/11/01 12:39:56;;;;;;;0.68;0.57;;;21.00;69.40;;;;;;5043764;28;20774;-13
2022/11/01 12:42:27;;;;;;;1.00;0.40;;;20.90;69.80;;;;;;5012735;28;20062;-12
2022/11/01 12:45:01;;;;;;;2.53;0.85;;;20.90;69.80;;;;;;4987066;28;20667;-12
2022/11/01 12:47:37;;;;;;;1.13;0.70;;;20.80;70.00;;;;;;5001069;28;20065;-12
2022/11/01 12:50:25;;;;;;;0.73;0.30;;;20.60;70.80;;;;;;4999317;28;20037;-23
2022/11/01 12:52:57;;;;;;;0.82;0.47;;;20.70;70.30;;;;;;5008564;28;20137;-12
2022/11/01 12:55:39;;;;;;;0.90;0.43;;;20.70;70.60;;;;;;5014225;28;20060;-13
2022/11/01 12:58:08;;;;;;;0.90;0.40;;;20.60;71.70;;;;;;5008989;28;20047;-13
2022/11/01 13:00:58;;;;;;;0.47;0.30;;;20.50;71.30;;;;;;4998738;28;20092;-13
2022/11/01 13:04:11;;;;;;;1.45;0.93;;;20.40;71.30;;;;;;4999300;28;20545;-12
2022/11/01 13:06:55;;;;;;;0.70;0.60;;;20.50;71.10;;;;;;4994808;28;20123;-13
2022/11/01 13:09:44;;;;;;;2.92;0.45;;;20.50;70.90;;;;;;5002833;28;20490;-12